sensor_id;sensor_type;location;lat;lon;timestamp;temperature;humidity
71088;SHT31;58747;50.674;4.616;2022-07-19T00:02:50;22.53;48.38
71088;SHT31;58747;50.674;4.616;2022-07-19T00:05:57;22.49;48.38
71088;SHT31;58747;50.674;4.616;2022-07-19T00:08:28;22.42;48.57
71088;SHT31;58747;50.674;4.616;2022-07-19T00:14:30;22.30;48.84
71088;SHT31;58747;50.674;4.616;2022-07-19T00:17:21;22.26;48.88
71088;SHT31;58747;50.674;4.616;2022-07-19T00:20:21;22.19;49.61
71088;SHT31;58747;50.674;4.616;2022-07-19T00:23:03;22.16;49.98
71088;SHT31;58747;50.674;4.616;2022-07-19T00:25:49;22.09;50.19
71088;SHT31;58747;50.674;4.616;2022-07-19T00:28:20;22.04;50.31
71088;SHT31;58747;50.674;4.616;2022-07-19T00:31:20;21.99;50.71
71088;SHT31;58747;50.674;4.616;2022-07-19T00:34:19;21.92;50.45
71088;SHT31;58747;50.674;4.616;2022-07-19T00:36:58;21.88;50.99
71088;SHT31;58747;50.674;4.616;2022-07-19T00:39:36;21.80;50.99
71088;SHT31;58747;50.674;4.616;2022-07-19T00:42:42;21.71;51.93
71088;SHT31;58747;50.674;4.616;2022-07-19T00:47:55;21.64;52.28
71088;SHT31;58747;50.674;4.616;2022-07-19T00:50:38;21.58;52.60
71088;SHT31;58747;50.674;4.616;2022-07-19T00:53:26;21.53;52.65
71088;SHT31;58747;50.674;4.616;2022-07-19T00:56:00;21.53;52.66
71088;SHT31;58747;50.674;4.616;2022-07-19T00:58:40;21.47;53.00
71088;SHT31;58747;50.674;4.616;2022-07-19T01:01:49;21.46;52.50
71088;SHT31;58747;50.674;4.616;2022-07-19T01:04:54;21.44;53.02
71088;SHT31;58747;50.674;4.616;2022-07-19T01:07:39;21.43;53.55
71088;SHT31;58747;50.674;4.616;2022-07-19T01:10:23;21.37;53.15
71088;SHT31;58747;50.674;4.616;2022-07-19T01:16:51;21.33;52.36
71088;SHT31;58747;50.674;4.616;2022-07-19T01:20:07;21.32;51.97
71088;SHT31;58747;50.674;4.616;2022-07-19T01:28:34;21.23;51.97
71088;SHT31;58747;50.674;4.616;2022-07-19T01:31:21;21.18;52.04
71088;SHT31;58747;50.674;4.616;2022-07-19T01:33:52;21.18;52.24
71088;SHT31;58747;50.674;4.616;2022-07-19T01:39:04;21.06;52.80
71088;SHT31;58747;50.674;4.616;2022-07-19T01:41:41;21.07;52.63
71088;SHT31;58747;50.674;4.616;2022-07-19T01:47:13;21.04;52.23
71088;SHT31;58747;50.674;4.616;2022-07-19T01:50:24;21.04;52.59
71088;SHT31;58747;50.674;4.616;2022-07-19T01:52:56;20.98;52.95
71088;SHT31;58747;50.674;4.616;2022-07-19T01:58:17;20.96;53.03
71088;SHT31;58747;50.674;4.616;2022-07-19T02:00:52;20.88;53.33
71088;SHT31;58747;50.674;4.616;2022-07-19T02:03:28;20.85;52.84
71088;SHT31;58747;50.674;4.616;2022-07-19T02:06:11;20.82;53.00
71088;SHT31;58747;50.674;4.616;2022-07-19T02:08:46;20.78;53.58
71088;SHT31;58747;50.674;4.616;2022-07-19T02:11:18;20.72;53.61
71088;SHT31;58747;50.674;4.616;2022-07-19T02:14:08;20.74;53.72
71088;SHT31;58747;50.674;4.616;2022-07-19T02:16:41;20.71;54.38
71088;SHT31;58747;50.674;4.616;2022-07-19T02:19:07;20.59;55.03
71088;SHT31;58747;50.674;4.616;2022-07-19T02:21:40;20.56;55.04
71088;SHT31;58747;50.674;4.616;2022-07-19T02:24:12;20.55;54.94
71088;SHT31;58747;50.674;4.616;2022-07-19T02:27:09;20.52;55.10
71088;SHT31;58747;50.674;4.616;2022-07-19T02:29:44;20.51;55.10
71088;SHT31;58747;50.674;4.616;2022-07-19T02:32:14;20.45;55.77
71088;SHT31;58747;50.674;4.616;2022-07-19T02:34:45;20.43;55.45
71088;SHT31;58747;50.674;4.616;2022-07-19T02:37:15;20.33;55.47
71088;SHT31;58747;50.674;4.616;2022-07-19T02:39:58;20.35;56.29
71088;SHT31;58747;50.674;4.616;2022-07-19T02:42:29;20.30;56.47
71088;SHT31;58747;50.674;4.616;2022-07-19T02:44:57;20.28;56.56
71088;SHT31;58747;50.674;4.616;2022-07-19T02:47:25;20.20;57.17
71088;SHT31;58747;50.674;4.616;2022-07-19T02:49:56;20.16;57.07
71088;SHT31;58747;50.674;4.616;2022-07-19T02:52:33;20.13;57.31
71088;SHT31;58747;50.674;4.616;2022-07-19T02:55:11;20.12;57.42
71088;SHT31;58747;50.674;4.616;2022-07-19T02:57:45;20.07;57.62
71088;SHT31;58747;50.674;4.616;2022-07-19T03:00:19;20.09;57.56
71088;SHT31;58747;50.674;4.616;2022-07-19T03:02:58;20.06;58.02
71088;SHT31;58747;50.674;4.616;2022-07-19T03:05:57;20.01;58.62
71088;SHT31;58747;50.674;4.616;2022-07-19T03:08:26;19.97;58.57
71088;SHT31;58747;50.674;4.616;2022-07-19T03:11:00;19.93;58.33
71088;SHT31;58747;50.674;4.616;2022-07-19T03:13:36;19.85;58.56
71088;SHT31;58747;50.674;4.616;2022-07-19T03:16:05;19.79;58.94
71088;SHT31;58747;50.674;4.616;2022-07-19T03:18:38;19.76;58.98
71088;SHT31;58747;50.674;4.616;2022-07-19T03:24:17;19.73;59.16
71088;SHT31;58747;50.674;4.616;2022-07-19T03:26:48;19.72;59.42
71088;SHT31;58747;50.674;4.616;2022-07-19T03:29:27;19.69;59.54
71088;SHT31;58747;50.674;4.616;2022-07-19T03:32:06;19.65;59.54
71088;SHT31;58747;50.674;4.616;2022-07-19T03:35:14;19.59;59.66
71088;SHT31;58747;50.674;4.616;2022-07-19T03:37:56;19.61;59.71
71088;SHT31;58747;50.674;4.616;2022-07-19T03:40:29;19.59;59.65
71088;SHT31;58747;50.674;4.616;2022-07-19T03:43:06;19.52;60.35
71088;SHT31;58747;50.674;4.616;2022-07-19T03:45:43;19.49;60.74
71088;SHT31;58747;50.674;4.616;2022-07-19T03:48:14;19.55;60.55
71088;SHT31;58747;50.674;4.616;2022-07-19T03:50:47;19.56;60.26
71088;SHT31;58747;50.674;4.616;2022-07-19T03:53:24;19.54;60.23
71088;SHT31;58747;50.674;4.616;2022-07-19T03:55:58;19.55;60.16
71088;SHT31;58747;50.674;4.616;2022-07-19T03:58:31;19.51;61.46
71088;SHT31;58747;50.674;4.616;2022-07-19T04:01:10;19.52;61.25
71088;SHT31;58747;50.674;4.616;2022-07-19T04:03:41;19.55;61.70
71088;SHT31;58747;50.674;4.616;2022-07-19T04:06:15;19.55;61.68
71088;SHT31;58747;50.674;4.616;2022-07-19T04:08:46;19.54;61.65
71088;SHT31;58747;50.674;4.616;2022-07-19T04:11:30;19.52;61.83
71088;SHT31;58747;50.674;4.616;2022-07-19T04:14:04;19.55;61.53
71088;SHT31;58747;50.674;4.616;2022-07-19T04:16:35;19.59;61.08
71088;SHT31;58747;50.674;4.616;2022-07-19T04:19:04;19.63;61.00
71088;SHT31;58747;50.674;4.616;2022-07-19T04:21:41;19.73;60.91
71088;SHT31;58747;50.674;4.616;2022-07-19T04:24:13;19.97;58.28
71088;SHT31;58747;50.674;4.616;2022-07-19T04:26:49;20.12;57.32
71088;SHT31;58747;50.674;4.616;2022-07-19T04:29:33;20.24;56.86
71088;SHT31;58747;50.674;4.616;2022-07-19T04:32:02;20.30;57.50
71088;SHT31;58747;50.674;4.616;2022-07-19T04:34:37;20.35;57.51
71088;SHT31;58747;50.674;4.616;2022-07-19T04:37:11;20.45;55.67
71088;SHT31;58747;50.674;4.616;2022-07-19T04:39:42;20.51;56.45
71088;SHT31;58747;50.674;4.616;2022-07-19T04:42:11;20.58;56.63
71088;SHT31;58747;50.674;4.616;2022-07-19T04:44:36;20.58;58.17
71088;SHT31;58747;50.674;4.616;2022-07-19T04:47:19;20.58;58.23
71088;SHT31;58747;50.674;4.616;2022-07-19T04:49:44;20.56;58.78
71088;SHT31;58747;50.674;4.616;2022-07-19T04:52:24;20.61;58.51
71088;SHT31;58747;50.674;4.616;2022-07-19T04:54:55;20.67;58.83
71088;SHT31;58747;50.674;4.616;2022-07-19T04:57:23;20.67;58.43
71088;SHT31;58747;50.674;4.616;2022-07-19T04:59:58;20.72;55.94
71088;SHT31;58747;50.674;4.616;2022-07-19T05:02:37;21.00;52.99
71088;SHT31;58747;50.674;4.616;2022-07-19T05:05:06;21.09;53.55
71088;SHT31;58747;50.674;4.616;2022-07-19T05:07:34;21.26;52.07
71088;SHT31;58747;50.674;4.616;2022-07-19T05:10:07;21.34;51.75
71088;SHT31;58747;50.674;4.616;2022-07-19T05:12:44;21.54;50.64
71088;SHT31;58747;50.674;4.616;2022-07-19T05:15:10;21.74;49.28
71088;SHT31;58747;50.674;4.616;2022-07-19T05:17:36;21.92;49.08
71088;SHT31;58747;50.674;4.616;2022-07-19T05:20:07;22.02;49.43
71088;SHT31;58747;50.674;4.616;2022-07-19T05:22:37;22.15;48.50
71088;SHT31;58747;50.674;4.616;2022-07-19T05:25:06;22.20;48.78
71088;SHT31;58747;50.674;4.616;2022-07-19T05:27:37;22.26;48.40
71088;SHT31;58747;50.674;4.616;2022-07-19T05:30:09;22.32;48.49
71088;SHT31;58747;50.674;4.616;2022-07-19T05:32:34;22.45;47.77
71088;SHT31;58747;50.674;4.616;2022-07-19T05:35:00;22.49;47.84
71088;SHT31;58747;50.674;4.616;2022-07-19T05:37:26;22.61;47.32
71088;SHT31;58747;50.674;4.616;2022-07-19T05:39:51;22.74;46.98
71088;SHT31;58747;50.674;4.616;2022-07-19T05:42:16;22.78;47.22
71088;SHT31;58747;50.674;4.616;2022-07-19T05:44:42;22.84;47.28
71088;SHT31;58747;50.674;4.616;2022-07-19T05:47:07;22.90;46.78
71088;SHT31;58747;50.674;4.616;2022-07-19T05:49:33;23.03;46.35
71088;SHT31;58747;50.674;4.616;2022-07-19T05:51:58;23.37;46.56
71088;SHT31;58747;50.674;4.616;2022-07-19T05:54:24;24.07;45.40
71088;SHT31;58747;50.674;4.616;2022-07-19T05:56:49;24.72;44.35
71088;SHT31;58747;50.674;4.616;2022-07-19T05:59:15;25.19;43.55
71088;SHT31;58747;50.674;4.616;2022-07-19T06:01:40;25.44;41.72
71088;SHT31;58747;50.674;4.616;2022-07-19T06:04:06;25.82;41.66
71088;SHT31;58747;50.674;4.616;2022-07-19T06:06:32;26.14;40.22
71088;SHT31;58747;50.674;4.616;2022-07-19T06:08:59;26.45;40.22
71088;SHT31;58747;50.674;4.616;2022-07-19T06:11:26;26.59;39.94
71088;SHT31;58747;50.674;4.616;2022-07-19T06:13:52;26.91;39.64
71088;SHT31;58747;50.674;4.616;2022-07-19T06:16:18;27.20;39.51
71088;SHT31;58747;50.674;4.616;2022-07-19T06:18:43;27.34;39.26
71088;SHT31;58747;50.674;4.616;2022-07-19T06:21:11;27.49;38.66
71088;SHT31;58747;50.674;4.616;2022-07-19T06:23:38;27.65;39.03
71088;SHT31;58747;50.674;4.616;2022-07-19T06:26:05;27.99;38.50
71088;SHT31;58747;50.674;4.616;2022-07-19T06:28:31;28.21;37.11
71088;SHT31;58747;50.674;4.616;2022-07-19T06:30:56;28.36;37.46
71088;SHT31;58747;50.674;4.616;2022-07-19T06:33:22;28.23;36.42
71088;SHT31;58747;50.674;4.616;2022-07-19T06:35:48;28.28;36.71
71088;SHT31;58747;50.674;4.616;2022-07-19T06:38:13;28.48;36.08
71088;SHT31;58747;50.674;4.616;2022-07-19T06:40:39;28.52;36.38
71088;SHT31;58747;50.674;4.616;2022-07-19T06:43:05;28.80;35.24
71088;SHT31;58747;50.674;4.616;2022-07-19T06:45:30;28.95;35.39
71088;SHT31;58747;50.674;4.616;2022-07-19T06:47:56;28.91;35.62
71088;SHT31;58747;50.674;4.616;2022-07-19T06:50:21;28.47;35.94
71088;SHT31;58747;50.674;4.616;2022-07-19T06:52:47;28.24;37.10
71088;SHT31;58747;50.674;4.616;2022-07-19T06:55:13;28.27;36.58
71088;SHT31;58747;50.674;4.616;2022-07-19T06:57:39;28.37;36.92
71088;SHT31;58747;50.674;4.616;2022-07-19T07:00:05;28.33;37.65
71088;SHT31;58747;50.674;4.616;2022-07-19T07:02:32;28.48;37.38
71088;SHT31;58747;50.674;4.616;2022-07-19T07:04:57;28.44;36.60
71088;SHT31;58747;50.674;4.616;2022-07-19T07:07:23;28.36;36.53
71088;SHT31;58747;50.674;4.616;2022-07-19T07:09:48;28.37;36.13
71088;SHT31;58747;50.674;4.616;2022-07-19T07:12:14;28.48;36.39
71088;SHT31;58747;50.674;4.616;2022-07-19T07:14:39;28.37;35.38
71088;SHT31;58747;50.674;4.616;2022-07-19T07:17:04;28.48;35.25
71088;SHT31;58747;50.674;4.616;2022-07-19T07:19:30;28.54;34.69
71088;SHT31;58747;50.674;4.616;2022-07-19T07:21:55;28.67;34.68
71088;SHT31;58747;50.674;4.616;2022-07-19T07:24:23;28.95;34.27
71088;SHT31;58747;50.674;4.616;2022-07-19T07:26:48;29.05;34.56
71088;SHT31;58747;50.674;4.616;2022-07-19T07:29:13;29.15;33.54
71088;SHT31;58747;50.674;4.616;2022-07-19T07:31:39;29.22;33.55
71088;SHT31;58747;50.674;4.616;2022-07-19T07:34:04;29.37;33.20
71088;SHT31;58747;50.674;4.616;2022-07-19T07:36:29;29.51;34.02
71088;SHT31;58747;50.674;4.616;2022-07-19T07:38:55;29.73;33.58
71088;SHT31;58747;50.674;4.616;2022-07-19T07:41:20;29.94;32.67
71088;SHT31;58747;50.674;4.616;2022-07-19T07:43:46;30.04;33.18
71088;SHT31;58747;50.674;4.616;2022-07-19T07:46:11;30.32;33.52
71088;SHT31;58747;50.674;4.616;2022-07-19T07:48:36;30.59;32.97
71088;SHT31;58747;50.674;4.616;2022-07-19T07:51:02;30.77;33.22
71088;SHT31;58747;50.674;4.616;2022-07-19T07:53:27;30.80;32.55
71088;SHT31;58747;50.674;4.616;2022-07-19T07:55:53;31.04;30.96
71088;SHT31;58747;50.674;4.616;2022-07-19T07:58:18;31.20;31.39
71088;SHT31;58747;50.674;4.616;2022-07-19T08:00:44;31.31;30.50
71088;SHT31;58747;50.674;4.616;2022-07-19T08:03:09;31.45;31.03
71088;SHT31;58747;50.674;4.616;2022-07-19T08:05:35;31.65;30.28
71088;SHT31;58747;50.674;4.616;2022-07-19T08:08:00;31.88;30.30
71088;SHT31;58747;50.674;4.616;2022-07-19T08:10:28;32.00;30.65
71088;SHT31;58747;50.674;4.616;2022-07-19T08:12:54;32.23;29.57
71088;SHT31;58747;50.674;4.616;2022-07-19T08:15:20;32.14;29.06
71088;SHT31;58747;50.674;4.616;2022-07-19T08:17:46;32.43;29.29
71088;SHT31;58747;50.674;4.616;2022-07-19T08:20:12;32.61;29.56
71088;SHT31;58747;50.674;4.616;2022-07-19T08:22:37;32.70;29.13
71088;SHT31;58747;50.674;4.616;2022-07-19T08:25:03;32.78;28.02
71088;SHT31;58747;50.674;4.616;2022-07-19T08:27:28;32.65;27.69
71088;SHT31;58747;50.674;4.616;2022-07-19T08:29:54;32.74;27.61
71088;SHT31;58747;50.674;4.616;2022-07-19T08:32:19;32.76;26.21
71088;SHT31;58747;50.674;4.616;2022-07-19T08:34:45;32.75;26.09
71088;SHT31;58747;50.674;4.616;2022-07-19T08:37:10;32.99;26.42
71088;SHT31;58747;50.674;4.616;2022-07-19T08:39:36;33.11;26.78
71088;SHT31;58747;50.674;4.616;2022-07-19T08:42:01;33.32;26.10
71088;SHT31;58747;50.674;4.616;2022-07-19T08:44:28;33.25;25.82
71088;SHT31;58747;50.674;4.616;2022-07-19T08:46:54;33.39;24.80
71088;SHT31;58747;50.674;4.616;2022-07-19T08:49:20;33.27;24.49
71088;SHT31;58747;50.674;4.616;2022-07-19T08:51:47;33.25;25.19
71088;SHT31;58747;50.674;4.616;2022-07-19T08:54:13;33.19;24.67
71088;SHT31;58747;50.674;4.616;2022-07-19T08:56:38;33.49;25.83
71088;SHT31;58747;50.674;4.616;2022-07-19T08:59:22;33.52;24.12
71088;SHT31;58747;50.674;4.616;2022-07-19T09:01:48;33.52;23.77
71088;SHT31;58747;50.674;4.616;2022-07-19T09:04:19;33.52;24.01
71088;SHT31;58747;50.674;4.616;2022-07-19T09:06:52;33.70;23.64
71088;SHT31;58747;50.674;4.616;2022-07-19T09:09:26;33.77;24.19
71088;SHT31;58747;50.674;4.616;2022-07-19T09:11:54;33.89;23.94
71088;SHT31;58747;50.674;4.616;2022-07-19T09:14:31;34.04;23.48
71088;SHT31;58747;50.674;4.616;2022-07-19T09:17:08;34.18;23.90
71088;SHT31;58747;50.674;4.616;2022-07-19T09:19:40;34.41;25.26
71088;SHT31;58747;50.674;4.616;2022-07-19T09:22:08;34.37;24.03
71088;SHT31;58747;50.674;4.616;2022-07-19T09:24:37;34.59;22.64
71088;SHT31;58747;50.674;4.616;2022-07-19T09:27:06;34.63;23.00
71088;SHT31;58747;50.674;4.616;2022-07-19T09:29:34;34.75;23.62
71088;SHT31;58747;50.674;4.616;2022-07-19T09:32:08;34.82;22.86
71088;SHT31;58747;50.674;4.616;2022-07-19T09:37:22;35.26;23.67
71088;SHT31;58747;50.674;4.616;2022-07-19T09:39:50;35.40;22.05
71088;SHT31;58747;50.674;4.616;2022-07-19T09:42:20;35.50;21.52
71088;SHT31;58747;50.674;4.616;2022-07-19T09:44:46;35.44;22.42
71088;SHT31;58747;50.674;4.616;2022-07-19T09:47:12;35.48;22.31
71088;SHT31;58747;50.674;4.616;2022-07-19T09:49:38;35.54;21.94
71088;SHT31;58747;50.674;4.616;2022-07-19T09:52:03;35.86;22.39
71088;SHT31;58747;50.674;4.616;2022-07-19T09:54:29;35.96;21.58
71088;SHT31;58747;50.674;4.616;2022-07-19T09:56:56;35.89;21.29
71088;SHT31;58747;50.674;4.616;2022-07-19T09:59:23;35.82;22.33
71088;SHT31;58747;50.674;4.616;2022-07-19T10:01:51;35.77;22.23
71088;SHT31;58747;50.674;4.616;2022-07-19T10:04:19;35.96;22.87
71088;SHT31;58747;50.674;4.616;2022-07-19T10:06:46;36.11;21.29
71088;SHT31;58747;50.674;4.616;2022-07-19T10:09:15;36.05;20.66
71088;SHT31;58747;50.674;4.616;2022-07-19T10:11:41;36.15;19.90
71088;SHT31;58747;50.674;4.616;2022-07-19T10:14:07;36.33;20.96
71088;SHT31;58747;50.674;4.616;2022-07-19T10:19:42;36.01;20.19
71088;SHT31;58747;50.674;4.616;2022-07-19T10:22:11;36.13;20.88
71088;SHT31;58747;50.674;4.616;2022-07-19T10:24:52;36.28;20.65
71088;SHT31;58747;50.674;4.616;2022-07-19T10:32:31;36.94;20.98
71088;SHT31;58747;50.674;4.616;2022-07-19T10:35:20;36.80;21.52
71088;SHT31;58747;50.674;4.616;2022-07-19T10:37:54;37.04;21.37
71088;SHT31;58747;50.674;4.616;2022-07-19T10:43:04;36.97;21.14
71088;SHT31;58747;50.674;4.616;2022-07-19T10:45:31;37.29;21.28
71088;SHT31;58747;50.674;4.616;2022-07-19T10:47:58;37.27;19.64
71088;SHT31;58747;50.674;4.616;2022-07-19T10:50:42;37.24;20.18
71088;SHT31;58747;50.674;4.616;2022-07-19T10:53:07;37.29;21.09
71088;SHT31;58747;50.674;4.616;2022-07-19T10:55:33;37.48;20.56
71088;SHT31;58747;50.674;4.616;2022-07-19T11:00:53;37.85;20.37
71088;SHT31;58747;50.674;4.616;2022-07-19T11:05:48;37.75;19.24
71088;SHT31;58747;50.674;4.616;2022-07-19T11:08:14;37.70;19.61
71088;SHT31;58747;50.674;4.616;2022-07-19T11:10:39;38.10;18.79
71088;SHT31;58747;50.674;4.616;2022-07-19T11:13:05;38.40;19.14
71088;SHT31;58747;50.674;4.616;2022-07-19T11:15:31;39.05;18.54
71088;SHT31;58747;50.674;4.616;2022-07-19T11:18:07;40.02;17.88
71088;SHT31;58747;50.674;4.616;2022-07-19T11:20:34;40.97;16.62
71088;SHT31;58747;50.674;4.616;2022-07-19T11:23:02;40.82;16.55
71088;SHT31;58747;50.674;4.616;2022-07-19T11:25:34;41.89;16.21
71088;SHT31;58747;50.674;4.616;2022-07-19T11:28:01;42.30;15.45
71088;SHT31;58747;50.674;4.616;2022-07-19T11:30:29;42.79;15.06
71088;SHT31;58747;50.674;4.616;2022-07-19T11:32:58;43.36;15.01
71088;SHT31;58747;50.674;4.616;2022-07-19T11:35:24;44.16;14.71
71088;SHT31;58747;50.674;4.616;2022-07-19T11:37:52;44.58;14.29
71088;SHT31;58747;50.674;4.616;2022-07-19T11:40:18;44.85;14.64
71088;SHT31;58747;50.674;4.616;2022-07-19T11:42:45;45.63;14.15
71088;SHT31;58747;50.674;4.616;2022-07-19T11:45:22;46.12;13.66
71088;SHT31;58747;50.674;4.616;2022-07-19T11:47:53;46.15;13.51
71088;SHT31;58747;50.674;4.616;2022-07-19T11:50:23;46.99;13.77
71088;SHT31;58747;50.674;4.616;2022-07-19T11:52:57;47.21;13.34
71088;SHT31;58747;50.674;4.616;2022-07-19T11:55:28;47.36;12.47
71088;SHT31;58747;50.674;4.616;2022-07-19T11:57:54;47.33;12.54
71088;SHT31;58747;50.674;4.616;2022-07-19T12:00:21;46.96;12.11
71088;SHT31;58747;50.674;4.616;2022-07-19T12:03:05;47.30;12.39
71088;SHT31;58747;50.674;4.616;2022-07-19T12:05:36;47.43;13.28
71088;SHT31;58747;50.674;4.616;2022-07-19T12:08:04;47.31;12.73
71088;SHT31;58747;50.674;4.616;2022-07-19T12:13:05;47.40;12.45
71088;SHT31;58747;50.674;4.616;2022-07-19T12:15:49;47.88;12.47
71088;SHT31;58747;50.674;4.616;2022-07-19T12:18:16;48.18;12.26
71088;SHT31;58747;50.674;4.616;2022-07-19T12:20:43;48.82;12.16
71088;SHT31;58747;50.674;4.616;2022-07-19T12:23:14;49.03;11.47
71088;SHT31;58747;50.674;4.616;2022-07-19T12:25:40;47.80;11.94
71088;SHT31;58747;50.674;4.616;2022-07-19T12:28:06;47.40;11.72
71088;SHT31;58747;50.674;4.616;2022-07-19T12:30:31;48.15;11.91
71088;SHT31;58747;50.674;4.616;2022-07-19T12:33:11;48.37;11.98
71088;SHT31;58747;50.674;4.616;2022-07-19T12:35:44;48.26;12.17
71088;SHT31;58747;50.674;4.616;2022-07-19T12:38:10;48.28;11.41
71088;SHT31;58747;50.674;4.616;2022-07-19T12:40:38;47.55;11.25
71088;SHT31;58747;50.674;4.616;2022-07-19T12:43:04;47.06;11.77
71088;SHT31;58747;50.674;4.616;2022-07-19T12:47:58;48.07;11.38
71088;SHT31;58747;50.674;4.616;2022-07-19T12:50:29;48.01;11.25
71088;SHT31;58747;50.674;4.616;2022-07-19T12:52:57;47.81;11.96
71088;SHT31;58747;50.674;4.616;2022-07-19T12:55:24;48.33;11.23
71088;SHT31;58747;50.674;4.616;2022-07-19T12:57:51;49.00;10.98
71088;SHT31;58747;50.674;4.616;2022-07-19T13:00:18;48.50;10.77
71088;SHT31;58747;50.674;4.616;2022-07-19T13:02:45;48.93;10.56
71088;SHT31;58747;50.674;4.616;2022-07-19T13:05:10;48.33;11.44
71088;SHT31;58747;50.674;4.616;2022-07-19T13:07:36;48.13;10.55
71088;SHT31;58747;50.674;4.616;2022-07-19T13:10:01;47.07;11.47
71088;SHT31;58747;50.674;4.616;2022-07-19T13:12:27;45.67;12.22
71088;SHT31;58747;50.674;4.616;2022-07-19T13:14:53;44.38;12.59
71088;SHT31;58747;50.674;4.616;2022-07-19T13:17:18;43.08;13.11
71088;SHT31;58747;50.674;4.616;2022-07-19T13:19:43;42.39;14.01
71088;SHT31;58747;50.674;4.616;2022-07-19T13:22:09;41.81;14.17
71088;SHT31;58747;50.674;4.616;2022-07-19T13:24:34;41.58;13.70
71088;SHT31;58747;50.674;4.616;2022-07-19T13:27:00;41.31;14.47
71088;SHT31;58747;50.674;4.616;2022-07-19T13:29:25;40.89;14.25
71088;SHT31;58747;50.674;4.616;2022-07-19T13:31:51;40.66;13.20
71088;SHT31;58747;50.674;4.616;2022-07-19T13:34:17;40.19;14.16
71088;SHT31;58747;50.674;4.616;2022-07-19T13:36:42;39.97;15.71
71088;SHT31;58747;50.674;4.616;2022-07-19T13:39:08;39.88;15.22
71088;SHT31;58747;50.674;4.616;2022-07-19T13:41:36;39.70;14.86
71088;SHT31;58747;50.674;4.616;2022-07-19T13:44:02;39.56;15.03
71088;SHT31;58747;50.674;4.616;2022-07-19T13:46:27;39.38;14.34
71088;SHT31;58747;50.674;4.616;2022-07-19T13:48:52;39.13;14.42
71088;SHT31;58747;50.674;4.616;2022-07-19T13:51:18;38.98;14.77
71088;SHT31;58747;50.674;4.616;2022-07-19T13:53:43;38.96;15.47
71088;SHT31;58747;50.674;4.616;2022-07-19T13:56:09;38.95;15.95
71088;SHT31;58747;50.674;4.616;2022-07-19T13:58:34;38.91;16.46
71088;SHT31;58747;50.674;4.616;2022-07-19T14:00:59;38.98;14.40
71088;SHT31;58747;50.674;4.616;2022-07-19T14:03:26;38.85;14.11
71088;SHT31;58747;50.674;4.616;2022-07-19T14:05:51;38.82;14.54
71088;SHT31;58747;50.674;4.616;2022-07-19T14:08:17;38.86;14.57
71088;SHT31;58747;50.674;4.616;2022-07-19T14:10:42;38.88;14.38
71088;SHT31;58747;50.674;4.616;2022-07-19T14:13:08;38.89;15.59
71088;SHT31;58747;50.674;4.616;2022-07-19T14:15:34;38.83;14.05
71088;SHT31;58747;50.674;4.616;2022-07-19T14:18:00;38.74;14.43
71088;SHT31;58747;50.674;4.616;2022-07-19T14:20:25;38.71;14.81
71088;SHT31;58747;50.674;4.616;2022-07-19T14:22:51;38.76;15.69
71088;SHT31;58747;50.674;4.616;2022-07-19T14:25:16;38.79;14.75
71088;SHT31;58747;50.674;4.616;2022-07-19T14:27:42;38.81;14.78
71088;SHT31;58747;50.674;4.616;2022-07-19T14:30:07;38.82;15.32
71088;SHT31;58747;50.674;4.616;2022-07-19T14:32:33;38.76;14.68
71088;SHT31;58747;50.674;4.616;2022-07-19T14:34:58;38.71;15.37
71088;SHT31;58747;50.674;4.616;2022-07-19T14:37:23;38.62;15.03
71088;SHT31;58747;50.674;4.616;2022-07-19T14:39:49;38.64;14.83
71088;SHT31;58747;50.674;4.616;2022-07-19T14:42:14;38.72;15.06
71088;SHT31;58747;50.674;4.616;2022-07-19T14:44:41;38.68;14.52
71088;SHT31;58747;50.674;4.616;2022-07-19T14:47:06;38.68;14.49
71088;SHT31;58747;50.674;4.616;2022-07-19T14:49:33;38.65;14.76
71088;SHT31;58747;50.674;4.616;2022-07-19T14:51:59;38.60;14.89
71088;SHT31;58747;50.674;4.616;2022-07-19T14:54:25;38.50;15.08
71088;SHT31;58747;50.674;4.616;2022-07-19T14:56:51;38.48;15.26
71088;SHT31;58747;50.674;4.616;2022-07-19T14:59:17;38.54;16.29
71088;SHT31;58747;50.674;4.616;2022-07-19T15:01:43;38.55;16.40
71088;SHT31;58747;50.674;4.616;2022-07-19T15:04:08;38.51;15.72
71088;SHT31;58747;50.674;4.616;2022-07-19T15:06:33;38.47;15.35
71088;SHT31;58747;50.674;4.616;2022-07-19T15:08:59;38.47;15.50
71088;SHT31;58747;50.674;4.616;2022-07-19T15:11:24;38.38;15.76
71088;SHT31;58747;50.674;4.616;2022-07-19T15:13:49;38.43;16.06
71088;SHT31;58747;50.674;4.616;2022-07-19T15:16:15;38.47;16.25
71088;SHT31;58747;50.674;4.616;2022-07-19T15:18:40;38.43;16.26
71088;SHT31;58747;50.674;4.616;2022-07-19T15:21:06;38.41;16.14
71088;SHT31;58747;50.674;4.616;2022-07-19T15:23:32;38.35;16.15
71088;SHT31;58747;50.674;4.616;2022-07-19T15:25:59;38.35;15.96
71088;SHT31;58747;50.674;4.616;2022-07-19T15:28:24;38.37;15.91
71088;SHT31;58747;50.674;4.616;2022-07-19T15:30:50;38.35;15.81
71088;SHT31;58747;50.674;4.616;2022-07-19T15:33:15;38.34;15.94
71088;SHT31;58747;50.674;4.616;2022-07-19T15:35:40;38.28;14.76
71088;SHT31;58747;50.674;4.616;2022-07-19T15:38:06;38.21;15.41
71088;SHT31;58747;50.674;4.616;2022-07-19T15:40:31;38.20;15.53
71088;SHT31;58747;50.674;4.616;2022-07-19T15:42:57;38.14;15.50
71088;SHT31;58747;50.674;4.616;2022-07-19T15:45:22;38.16;15.84
71088;SHT31;58747;50.674;4.616;2022-07-19T15:47:48;38.09;15.30
71088;SHT31;58747;50.674;4.616;2022-07-19T15:50:15;38.12;15.80
71088;SHT31;58747;50.674;4.616;2022-07-19T15:52:41;38.10;15.05
71088;SHT31;58747;50.674;4.616;2022-07-19T15:55:09;38.16;16.59
71088;SHT31;58747;50.674;4.616;2022-07-19T15:57:34;38.17;14.56
71088;SHT31;58747;50.674;4.616;2022-07-19T16:00:00;38.19;14.92
71088;SHT31;58747;50.674;4.616;2022-07-19T16:02:26;38.03;15.63
71088;SHT31;58747;50.674;4.616;2022-07-19T16:04:51;38.03;15.65
71088;SHT31;58747;50.674;4.616;2022-07-19T16:07:17;38.00;15.69
71088;SHT31;58747;50.674;4.616;2022-07-19T16:09:43;37.96;15.33
71088;SHT31;58747;50.674;4.616;2022-07-19T16:12:11;37.92;14.86
71088;SHT31;58747;50.674;4.616;2022-07-19T16:14:36;37.89;15.09
71088;SHT31;58747;50.674;4.616;2022-07-19T16:17:02;37.86;14.94
71088;SHT31;58747;50.674;4.616;2022-07-19T16:19:27;37.87;15.27
71088;SHT31;58747;50.674;4.616;2022-07-19T16:21:52;37.86;15.56
71088;SHT31;58747;50.674;4.616;2022-07-19T16:24:18;37.80;14.98
71088;SHT31;58747;50.674;4.616;2022-07-19T16:26:43;37.73;16.35
71088;SHT31;58747;50.674;4.616;2022-07-19T16:29:08;37.69;15.32
71088;SHT31;58747;50.674;4.616;2022-07-19T16:31:35;37.68;16.38
71088;SHT31;58747;50.674;4.616;2022-07-19T16:34:00;37.64;16.21
71088;SHT31;58747;50.674;4.616;2022-07-19T16:36:26;37.62;16.31
71088;SHT31;58747;50.674;4.616;2022-07-19T16:38:52;37.56;16.44
71088;SHT31;58747;50.674;4.616;2022-07-19T16:41:17;37.58;16.15